sensor_id;sensor_type;location;lat;lon;timestamp;temperature;humidity
45735;DHT22;31446;49.632;8.328;2023-08-31T00:00:08;15.30;99.90
45735;DHT22;31446;49.632;8.328;2023-08-31T00:15:15;15.20;99.90
45735;DHT22;31446;49.632;8.328;2023-08-31T00:30:21;15.50;99.90
45735;DHT22;31446;49.632;8.328;2023-08-31T00:45:29;15.40;99.90
45735;DHT22;31446;49.632;8.328;2023-08-31T01:00:44;15.20;99.90
45735;DHT22;31446;49.632;8.328;2023-08-31T01:15:55;15.70;99.90
45735;DHT22;31446;49.632;8.328;2023-08-31T01:31:06;15.60;99.90
45735;DHT22;31446;49.632;8.328;2023-08-31T01:46:13;15.60;99.90
45735;DHT22;31446;49.632;8.328;2023-08-31T02:01:19;15.50;99.90
45735;DHT22;31446;49.632;8.328;2023-08-31T02:16:26;14.80;99.90
45735;DHT22;31446;49.632;8.328;2023-08-31T02:31:32;13.80;99.90
45735;DHT22;31446;49.632;8.328;2023-08-31T02:46:40;13.30;99.90
45735;DHT22;31446;49.632;8.328;2023-08-31T03:01:48;12.80;99.90
45735;DHT22;31446;49.632;8.328;2023-08-31T03:16:55;12.60;99.90
45735;DHT22;31446;49.632;8.328;2023-08-31T03:32:02;12.40;99.90
45735;DHT22;31446;49.632;8.328;2023-08-31T03:47:08;12.40;99.90
45735;DHT22;31446;49.632;8.328;2023-08-31T04:02:15;12.50;99.90
45735;DHT22;31446;49.632;8.328;2023-08-31T04:17:21;12.60;99.90
45735;DHT22;31446;49.632;8.328;2023-08-31T04:32:27;12.50;99.90
45735;DHT22;31446;49.632;8.328;2023-08-31T04:47:34;12.50;99.90
45735;DHT22;31446;49.632;8.328;2023-08-31T05:02:41;12.50;99.90
45735;DHT22;31446;49.632;8.328;2023-08-31T05:17:47;12.80;99.90
45735;DHT22;31446;49.632;8.328;2023-08-31T05:32:54;12.90;99.90
45735;DHT22;31446;49.632;8.328;2023-08-31T05:48:01;13.10;99.90
45735;DHT22;31446;49.632;8.328;2023-08-31T06:03:07;13.20;99.90
45735;DHT22;31446;49.632;8.328;2023-08-31T06:18:14;13.90;99.90
45735;DHT22;31446;49.632;8.328;2023-08-31T06:33:20;14.50;99.90
45735;DHT22;31446;49.632;8.328;2023-08-31T06:48:27;14.30;99.90
45735;DHT22;31446;49.632;8.328;2023-08-31T07:03:34;14.20;99.90
45735;DHT22;31446;49.632;8.328;2023-08-31T07:18:40;15.80;99.90
45735;DHT22;31446;49.632;8.328;2023-08-31T07:33:47;16.60;99.90
45735;DHT22;31446;49.632;8.328;2023-08-31T07:48:53;16.80;99.90
45735;DHT22;31446;49.632;8.328;2023-08-31T08:03:59;18.50;99.90
45735;DHT22;31446;49.632;8.328;2023-08-31T08:19:06;19.70;99.90
45735;DHT22;31446;49.632;8.328;2023-08-31T08:34:13;20.10;99.90
45735;DHT22;31446;49.632;8.328;2023-08-31T08:49:20;20.40;99.90
45735;DHT22;31446;49.632;8.328;2023-08-31T09:04:29;21.00;99.90
45735;DHT22;31446;49.632;8.328;2023-08-31T09:19:36;21.20;99.90
45735;DHT22;31446;49.632;8.328;2023-08-31T09:34:43;22.10;99.90
45735;DHT22;31446;49.632;8.328;2023-08-31T09:49:50;22.10;99.90
45735;DHT22;31446;49.632;8.328;2023-08-31T10:04:57;23.40;99.90
45735;DHT22;31446;49.632;8.328;2023-08-31T10:20:05;21.90;99.90
45735;DHT22;31446;49.632;8.328;2023-08-31T10:35:11;21.00;99.90
45735;DHT22;31446;49.632;8.328;2023-08-31T10:50:25;21.80;99.90
45735;DHT22;31446;49.632;8.328;2023-08-31T11:05:31;22.20;99.90
45735;DHT22;31446;49.632;8.328;2023-08-31T11:20:37;22.80;99.90
45735;DHT22;31446;49.632;8.328;2023-08-31T11:35:44;23.20;99.90
45735;DHT22;31446;49.632;8.328;2023-08-31T11:50:50;21.80;99.90
45735;DHT22;31446;49.632;8.328;2023-08-31T12:05:57;21.60;99.90
45735;DHT22;31446;49.632;8.328;2023-08-31T12:21:04;20.90;99.90
45735;DHT22;31446;49.632;8.328;2023-08-31T12:36:12;20.80;99.90
45735;DHT22;31446;49.632;8.328;2023-08-31T12:51:18;21.90;99.90
45735;DHT22;31446;49.632;8.328;2023-08-31T13:06:24;22.00;99.90
45735;DHT22;31446;49.632;8.328;2023-08-31T13:21:31;23.10;99.90
45735;DHT22;31446;49.632;8.328;2023-08-31T13:36:38;22.90;99.90
45735;DHT22;31446;49.632;8.328;2023-08-31T13:51:44;22.50;99.90
45735;DHT22;31446;49.632;8.328;2023-08-31T14:06:50;22.70;99.90
45735;DHT22;31446;49.632;8.328;2023-08-31T14:21:56;22.00;99.90
45735;DHT22;31446;49.632;8.328;2023-08-31T14:37:03;22.30;99.90
45735;DHT22;31446;49.632;8.328;2023-08-31T14:52:09;22.20;99.90
45735;DHT22;31446;49.632;8.328;2023-08-31T15:07:15;22.20;99.90
45735;DHT22;31446;49.632;8.328;2023-08-31T15:22:22;22.10;99.90
45735;DHT22;31446;49.632;8.328;2023-08-31T15:37:28;22.20;99.90
45735;DHT22;31446;49.632;8.328;2023-08-31T15:52:35;21.90;99.90
45735;DHT22;31446;49.632;8.328;2023-08-31T16:07:42;21.50;99.90
45735;DHT22;31446;49.632;8.328;2023-08-31T16:22:48;21.00;99.90
45735;DHT22;31446;49.632;8.328;2023-08-31T16:37:54;20.50;99.90
45735;DHT22;31446;49.632;8.328;2023-08-31T16:53:00;20.30;99.90
45735;DHT22;31446;49.632;8.328;2023-08-31T17:08:07;20.10;99.90
45735;DHT22;31446;49.632;8.328;2023-08-31T17:23:13;19.80;99.90
45735;DHT22;31446;49.632;8.328;2023-08-31T17:38:19;19.30;99.90
45735;DHT22;31446;49.632;8.328;2023-08-31T17:53:29;19.00;99.90
45735;DHT22;31446;49.632;8.328;2023-08-31T18:08:35;18.40;99.90
45735;DHT22;31446;49.632;8.328;2023-08-31T18:23:44;17.70;99.90
45735;DHT22;31446;49.632;8.328;2023-08-31T18:38:50;17.30;99.90
45735;DHT22;31446;49.632;8.328;2023-08-31T18:53:56;17.10;99.90
45735;DHT22;31446;49.632;8.328;2023-08-31T19:09:03;17.00;99.90
45735;DHT22;31446;49.632;8.328;2023-08-31T19:24:10;16.80;99.90
45735;DHT22;31446;49.632;8.328;2023-08-31T19:39:16;16.70;99.90
45735;DHT22;31446;49.632;8.328;2023-08-31T19:54:22;16.60;99.90
45735;DHT22;31446;49.632;8.328;2023-08-31T20:09:29;16.40;99.90
45735;DHT22;31446;49.632;8.328;2023-08-31T20:24:35;16.40;99.90
45735;DHT22;31446;49.632;8.328;2023-08-31T20:39:45;16.40;99.90
45735;DHT22;31446;49.632;8.328;2023-08-31T20:54:55;16.20;99.90
45735;DHT22;31446;49.632;8.328;2023-08-31T21:10:02;16.00;99.90
45735;DHT22;31446;49.632;8.328;2023-08-31T21:25:09;15.70;99.90
45735;DHT22;31446;49.632;8.328;2023-08-31T21:40:16;15.60;99.90
45735;DHT22;31446;49.632;8.328;2023-08-31T21:55:22;15.50;99.90
45735;DHT22;31446;49.632;8.328;2023-08-31T22:10:29;15.40;99.90
45735;DHT22;31446;49.632;8.328;2023-08-31T22:25:36;15.30;99.90
45735;DHT22;31446;49.632;8.328;2023-08-31T22:40:44;15.30;99.90
45735;DHT22;31446;49.632;8.328;2023-08-31T22:55:50;15.30;99.90
45735;DHT22;31446;49.632;8.328;2023-08-31T23:11:01;15.40;99.90
45735;DHT22;31446;49.632;8.328;2023-08-31T23:26:07;15.30;99.90
45735;DHT22;31446;49.632;8.328;2023-08-31T23:41:13;15.20;99.90
45735;DHT22;31446;49.632;8.328;2023-08-31T23:56:20;15.30;99.90
